sensor_id;sensor_type;location;lat;lon;timestamp;temperature;humidity
37300;DHT22;23184;51.902;12.836;2022-12-07T00:02:25;1.90;99.90
37300;DHT22;23184;51.902;12.836;2022-12-07T00:04:50;1.80;99.90
37300;DHT22;23184;51.902;12.836;2022-12-07T00:07:16;1.80;99.90
37300;DHT22;23184;51.902;12.836;2022-12-07T00:09:41;1.70;99.90
37300;DHT22;23184;51.902;12.836;2022-12-07T00:12:08;1.60;99.90
37300;DHT22;23184;51.902;12.836;2022-12-07T00:14:33;1.50;99.90
37300;DHT22;23184;51.902;12.836;2022-12-07T00:16:59;1.30;99.90
37300;DHT22;23184;51.902;12.836;2022-12-07T00:19:24;1.10;99.90
37300;DHT22;23184;51.902;12.836;2022-12-07T00:21:50;1.10;99.90
37300;DHT22;23184;51.902;12.836;2022-12-07T00:24:15;1.00;99.90
37300;DHT22;23184;51.902;12.836;2022-12-07T00:26:42;0.90;99.90
37300;DHT22;23184;51.902;12.836;2022-12-07T00:29:18;0.80;99.90
37300;DHT22;23184;51.902;12.836;2022-12-07T00:31:44;0.70;99.90
37300;DHT22;23184;51.902;12.836;2022-12-07T00:34:15;0.70;99.90
37300;DHT22;23184;51.902;12.836;2022-12-07T00:36:41;0.70;99.90
37300;DHT22;23184;51.902;12.836;2022-12-07T00:39:07;0.70;99.90
37300;DHT22;23184;51.902;12.836;2022-12-07T00:41:32;0.60;99.90
37300;DHT22;23184;51.902;12.836;2022-12-07T00:43:58;0.70;99.90
37300;DHT22;23184;51.902;12.836;2022-12-07T00:46:24;0.70;99.90
37300;DHT22;23184;51.902;12.836;2022-12-07T00:48:51;0.70;99.90
37300;DHT22;23184;51.902;12.836;2022-12-07T00:51:19;0.70;99.90
37300;DHT22;23184;51.902;12.836;2022-12-07T00:53:45;0.70;99.90
37300;DHT22;23184;51.902;12.836;2022-12-07T00:56:22;0.70;99.90
37300;DHT22;23184;51.902;12.836;2022-12-07T00:58:53;0.70;99.90
37300;DHT22;23184;51.902;12.836;2022-12-07T01:01:19;0.70;99.90
37300;DHT22;23184;51.902;12.836;2022-12-07T01:03:44;0.70;99.90
37300;DHT22;23184;51.902;12.836;2022-12-07T01:06:17;0.60;99.90
37300;DHT22;23184;51.902;12.836;2022-12-07T01:08:43;0.60;99.90
37300;DHT22;23184;51.902;12.836;2022-12-07T01:11:16;0.50;99.90
37300;DHT22;23184;51.902;12.836;2022-12-07T01:13:42;0.60;99.90
37300;DHT22;23184;51.902;12.836;2022-12-07T01:16:10;0.50;99.90
37300;DHT22;23184;51.902;12.836;2022-12-07T01:18:38;0.60;99.90
37300;DHT22;23184;51.902;12.836;2022-12-07T01:21:07;0.60;99.90
37300;DHT22;23184;51.902;12.836;2022-12-07T01:23:34;0.70;99.90
37300;DHT22;23184;51.902;12.836;2022-12-07T01:26:02;0.70;99.90
37300;DHT22;23184;51.902;12.836;2022-12-07T01:28:28;0.70;99.90
37300;DHT22;23184;51.902;12.836;2022-12-07T01:31:03;0.60;99.90
37300;DHT22;23184;51.902;12.836;2022-12-07T01:33:31;0.50;99.90
37300;DHT22;23184;51.902;12.836;2022-12-07T01:36:02;0.40;99.90
37300;DHT22;23184;51.902;12.836;2022-12-07T01:38:28;0.40;99.90
37300;DHT22;23184;51.902;12.836;2022-12-07T01:40:55;0.40;99.90
37300;DHT22;23184;51.902;12.836;2022-12-07T01:43:21;0.40;99.90
37300;DHT22;23184;51.902;12.836;2022-12-07T01:45:47;0.50;99.90
37300;DHT22;23184;51.902;12.836;2022-12-07T01:48:15;0.50;99.90
37300;DHT22;23184;51.902;12.836;2022-12-07T01:50:44;0.40;99.90
37300;DHT22;23184;51.902;12.836;2022-12-07T01:53:11;0.30;99.90
37300;DHT22;23184;51.902;12.836;2022-12-07T01:55:41;0.20;99.90
37300;DHT22;23184;51.902;12.836;2022-12-07T01:58:07;0.20;99.90
37300;DHT22;23184;51.902;12.836;2022-12-07T02:00:33;0.10;99.90
37300;DHT22;23184;51.902;12.836;2022-12-07T02:03:09;0.10;99.90
37300;DHT22;23184;51.902;12.836;2022-12-07T02:05:38;0.10;99.90
37300;DHT22;23184;51.902;12.836;2022-12-07T02:08:05;0.10;99.90
37300;DHT22;23184;51.902;12.836;2022-12-07T02:10:32;0.10;99.90
37300;DHT22;23184;51.902;12.836;2022-12-07T02:13:12;0.10;99.90
37300;DHT22;23184;51.902;12.836;2022-12-07T02:15:57;0.10;99.90
37300;DHT22;23184;51.902;12.836;2022-12-07T02:18:51;0.10;99.90
37300;DHT22;23184;51.902;12.836;2022-12-07T02:21:27;0.20;99.90
37300;DHT22;23184;51.902;12.836;2022-12-07T02:24:18;0.20;99.90
37300;DHT22;23184;51.902;12.836;2022-12-07T02:30:00;0.30;99.90
37300;DHT22;23184;51.902;12.836;2022-12-07T02:32:40;0.30;99.90
37300;DHT22;23184;51.902;12.836;2022-12-07T02:35:15;0.30;99.90
37300;DHT22;23184;51.902;12.836;2022-12-07T02:40:23;0.40;99.90
37300;DHT22;23184;51.902;12.836;2022-12-07T02:42:55;0.40;99.90
37300;DHT22;23184;51.902;12.836;2022-12-07T02:45:25;0.40;99.90
37300;DHT22;23184;51.902;12.836;2022-12-07T02:47:56;0.40;99.90
37300;DHT22;23184;51.902;12.836;2022-12-07T02:50:24;0.40;99.90
37300;DHT22;23184;51.902;12.836;2022-12-07T02:52:49;0.40;99.90
37300;DHT22;23184;51.902;12.836;2022-12-07T02:55:17;0.40;99.90
37300;DHT22;23184;51.902;12.836;2022-12-07T02:57:56;0.40;99.90
37300;DHT22;23184;51.902;12.836;2022-12-07T03:00:25;0.40;99.90
37300;DHT22;23184;51.902;12.836;2022-12-07T03:02:56;0.50;99.90
37300;DHT22;23184;51.902;12.836;2022-12-07T03:05:55;0.50;99.90
37300;DHT22;23184;51.902;12.836;2022-12-07T03:08:46;0.50;99.90
37300;DHT22;23184;51.902;12.836;2022-12-07T03:11:25;0.60;99.90
37300;DHT22;23184;51.902;12.836;2022-12-07T03:14:21;0.70;99.90
37300;DHT22;23184;51.902;12.836;2022-12-07T03:17:02;0.80;99.90
37300;DHT22;23184;51.902;12.836;2022-12-07T03:19:31;0.80;99.90
37300;DHT22;23184;51.902;12.836;2022-12-07T03:22:05;0.90;99.90
37300;DHT22;23184;51.902;12.836;2022-12-07T03:24:57;0.90;99.90
37300;DHT22;23184;51.902;12.836;2022-12-07T03:27:28;0.90;99.90
37300;DHT22;23184;51.902;12.836;2022-12-07T03:30:08;0.90;99.90
37300;DHT22;23184;51.902;12.836;2022-12-07T03:35:10;0.90;99.90
37300;DHT22;23184;51.902;12.836;2022-12-07T03:37:41;0.90;99.90
37300;DHT22;23184;51.902;12.836;2022-12-07T03:42:41;0.90;99.90
37300;DHT22;23184;51.902;12.836;2022-12-07T03:45:07;0.90;99.90
37300;DHT22;23184;51.902;12.836;2022-12-07T03:50:15;0.90;99.90
37300;DHT22;23184;51.902;12.836;2022-12-07T03:53:37;0.90;99.90
37300;DHT22;23184;51.902;12.836;2022-12-07T03:55:56;0.90;99.90
37300;DHT22;23184;51.902;12.836;2022-12-07T03:58:23;1.00;99.90
37300;DHT22;23184;51.902;12.836;2022-12-07T04:00:50;1.00;99.90
37300;DHT22;23184;51.902;12.836;2022-12-07T04:03:16;1.00;99.90
37300;DHT22;23184;51.902;12.836;2022-12-07T04:05:42;1.00;99.90
37300;DHT22;23184;51.902;12.836;2022-12-07T04:08:08;1.00;99.90
37300;DHT22;23184;51.902;12.836;2022-12-07T04:10:34;1.00;99.90
37300;DHT22;23184;51.902;12.836;2022-12-07T04:13:00;1.10;99.90
37300;DHT22;23184;51.902;12.836;2022-12-07T04:15:25;1.10;99.90
37300;DHT22;23184;51.902;12.836;2022-12-07T04:17:51;1.10;99.90
37300;DHT22;23184;51.902;12.836;2022-12-07T04:20:16;1.10;99.90
37300;DHT22;23184;51.902;12.836;2022-12-07T04:22:42;1.10;99.90
37300;DHT22;23184;51.902;12.836;2022-12-07T04:25:08;1.10;99.90
37300;DHT22;23184;51.902;12.836;2022-12-07T04:27:33;1.20;99.90
37300;DHT22;23184;51.902;12.836;2022-12-07T04:29:59;1.20;99.90
37300;DHT22;23184;51.902;12.836;2022-12-07T04:32:25;1.20;99.90
37300;DHT22;23184;51.902;12.836;2022-12-07T04:34:50;1.10;99.90
37300;DHT22;23184;51.902;12.836;2022-12-07T04:37:16;1.10;99.90
37300;DHT22;23184;51.902;12.836;2022-12-07T04:39:43;1.10;99.90
37300;DHT22;23184;51.902;12.836;2022-12-07T04:42:10;1.10;99.90
37300;DHT22;23184;51.902;12.836;2022-12-07T04:44:36;1.10;99.90
37300;DHT22;23184;51.902;12.836;2022-12-07T04:47:02;1.00;99.90
37300;DHT22;23184;51.902;12.836;2022-12-07T04:49:28;1.00;99.90
37300;DHT22;23184;51.902;12.836;2022-12-07T04:51:53;1.00;99.90
37300;DHT22;23184;51.902;12.836;2022-12-07T04:54:19;0.90;99.90
37300;DHT22;23184;51.902;12.836;2022-12-07T04:56:45;0.90;99.90
37300;DHT22;23184;51.902;12.836;2022-12-07T04:59:11;1.00;99.90
37300;DHT22;23184;51.902;12.836;2022-12-07T05:01:37;1.00;99.90
37300;DHT22;23184;51.902;12.836;2022-12-07T05:04:03;1.00;99.90
37300;DHT22;23184;51.902;12.836;2022-12-07T05:06:28;1.00;99.90
37300;DHT22;23184;51.902;12.836;2022-12-07T05:08:54;1.10;99.90
37300;DHT22;23184;51.902;12.836;2022-12-07T05:11:20;1.10;99.90
37300;DHT22;23184;51.902;12.836;2022-12-07T05:14:18;1.20;99.90
37300;DHT22;23184;51.902;12.836;2022-12-07T05:16:45;1.30;99.90
37300;DHT22;23184;51.902;12.836;2022-12-07T05:19:11;1.30;99.90
37300;DHT22;23184;51.902;12.836;2022-12-07T05:21:37;1.40;99.90
37300;DHT22;23184;51.902;12.836;2022-12-07T05:24:04;1.30;99.90
37300;DHT22;23184;51.902;12.836;2022-12-07T05:26:30;1.40;99.90
37300;DHT22;23184;51.902;12.836;2022-12-07T05:28:56;1.40;99.90
37300;DHT22;23184;51.902;12.836;2022-12-07T05:31:23;1.40;99.90
37300;DHT22;23184;51.902;12.836;2022-12-07T05:33:49;1.40;99.90
37300;DHT22;23184;51.902;12.836;2022-12-07T05:36:15;1.40;99.90
37300;DHT22;23184;51.902;12.836;2022-12-07T05:38:41;1.50;99.90
37300;DHT22;23184;51.902;12.836;2022-12-07T05:41:08;1.50;99.90
37300;DHT22;23184;51.902;12.836;2022-12-07T05:43:53;1.50;99.90
37300;DHT22;23184;51.902;12.836;2022-12-07T05:46:19;1.60;99.90
37300;DHT22;23184;51.902;12.836;2022-12-07T05:48:45;1.60;99.90
37300;DHT22;23184;51.902;12.836;2022-12-07T05:51:10;1.70;99.90
37300;DHT22;23184;51.902;12.836;2022-12-07T05:53:36;1.70;99.90
37300;DHT22;23184;51.902;12.836;2022-12-07T05:56:01;1.70;99.90
37300;DHT22;23184;51.902;12.836;2022-12-07T05:58:27;1.70;99.90
37300;DHT22;23184;51.902;12.836;2022-12-07T06:01:11;1.70;99.90
37300;DHT22;23184;51.902;12.836;2022-12-07T06:03:36;1.70;99.90
37300;DHT22;23184;51.902;12.836;2022-12-07T06:06:02;1.70;99.90
37300;DHT22;23184;51.902;12.836;2022-12-07T06:08:28;1.80;99.90
37300;DHT22;23184;51.902;12.836;2022-12-07T06:10:53;1.80;99.90
37300;DHT22;23184;51.902;12.836;2022-12-07T06:13:39;1.90;99.90
37300;DHT22;23184;51.902;12.836;2022-12-07T06:16:04;1.90;99.90
37300;DHT22;23184;51.902;12.836;2022-12-07T06:18:30;2.00;99.90
37300;DHT22;23184;51.902;12.836;2022-12-07T06:20:56;1.90;99.90
37300;DHT22;23184;51.902;12.836;2022-12-07T06:23:21;2.00;99.90
37300;DHT22;23184;51.902;12.836;2022-12-07T06:25:47;2.00;99.90
37300;DHT22;23184;51.902;12.836;2022-12-07T06:28:12;2.00;99.90
37300;DHT22;23184;51.902;12.836;2022-12-07T06:30:38;2.00;99.90
37300;DHT22;23184;51.902;12.836;2022-12-07T06:33:03;2.10;99.90
37300;DHT22;23184;51.902;12.836;2022-12-07T06:35:29;2.10;99.90
37300;DHT22;23184;51.902;12.836;2022-12-07T06:37:54;2.10;99.90
37300;DHT22;23184;51.902;12.836;2022-12-07T06:40:20;2.10;99.90
37300;DHT22;23184;51.902;12.836;2022-12-07T06:42:45;2.20;99.90
37300;DHT22;23184;51.902;12.836;2022-12-07T06:45:11;2.10;99.90
37300;DHT22;23184;51.902;12.836;2022-12-07T06:47:36;2.10;99.90
37300;DHT22;23184;51.902;12.836;2022-12-07T06:50:02;2.20;99.90
37300;DHT22;23184;51.902;12.836;2022-12-07T06:52:28;2.20;99.90
37300;DHT22;23184;51.902;12.836;2022-12-07T06:54:54;2.30;99.90
37300;DHT22;23184;51.902;12.836;2022-12-07T06:57:19;2.30;99.90
37300;DHT22;23184;51.902;12.836;2022-12-07T06:59:45;2.40;99.90
37300;DHT22;23184;51.902;12.836;2022-12-07T07:02:11;2.40;99.90
37300;DHT22;23184;51.902;12.836;2022-12-07T07:04:36;2.40;99.90
37300;DHT22;23184;51.902;12.836;2022-12-07T07:07:02;2.50;99.90
37300;DHT22;23184;51.902;12.836;2022-12-07T07:09:27;2.50;99.90
37300;DHT22;23184;51.902;12.836;2022-12-07T07:11:53;2.50;99.90
37300;DHT22;23184;51.902;12.836;2022-12-07T07:14:18;2.50;99.90
37300;DHT22;23184;51.902;12.836;2022-12-07T07:16:44;2.50;99.90
37300;DHT22;23184;51.902;12.836;2022-12-07T07:19:10;2.50;99.90
37300;DHT22;23184;51.902;12.836;2022-12-07T07:21:36;2.50;99.90
37300;DHT22;23184;51.902;12.836;2022-12-07T07:24:02;2.50;99.90
37300;DHT22;23184;51.902;12.836;2022-12-07T07:26:27;2.60;99.90
37300;DHT22;23184;51.902;12.836;2022-12-07T07:28:53;2.60;99.90
37300;DHT22;23184;51.902;12.836;2022-12-07T07:31:18;2.60;99.90
37300;DHT22;23184;51.902;12.836;2022-12-07T07:33:45;2.60;99.90
37300;DHT22;23184;51.902;12.836;2022-12-07T07:36:12;2.60;99.90
37300;DHT22;23184;51.902;12.836;2022-12-07T07:38:37;2.70;99.90
37300;DHT22;23184;51.902;12.836;2022-12-07T07:41:03;2.70;99.90
37300;DHT22;23184;51.902;12.836;2022-12-07T07:43:28;2.70;99.90
37300;DHT22;23184;51.902;12.836;2022-12-07T07:45:54;2.70;99.90
37300;DHT22;23184;51.902;12.836;2022-12-07T07:48:19;2.70;99.90
37300;DHT22;23184;51.902;12.836;2022-12-07T07:50:45;2.80;99.90
37300;DHT22;23184;51.902;12.836;2022-12-07T07:53:11;2.80;99.90
37300;DHT22;23184;51.902;12.836;2022-12-07T07:55:36;2.90;99.90
37300;DHT22;23184;51.902;12.836;2022-12-07T07:58:02;2.90;99.90
37300;DHT22;23184;51.902;12.836;2022-12-07T08:00:27;2.90;99.90
37300;DHT22;23184;51.902;12.836;2022-12-07T08:02:53;2.90;99.90
37300;DHT22;23184;51.902;12.836;2022-12-07T08:05:18;2.90;99.90
37300;DHT22;23184;51.902;12.836;2022-12-07T08:07:44;2.90;99.90
37300;DHT22;23184;51.902;12.836;2022-12-07T08:10:11;3.00;99.90
37300;DHT22;23184;51.902;12.836;2022-12-07T08:12:39;3.00;99.90
37300;DHT22;23184;51.902;12.836;2022-12-07T08:15:26;3.00;99.90
37300;DHT22;23184;51.902;12.836;2022-12-07T08:17:52;3.00;99.90
37300;DHT22;23184;51.902;12.836;2022-12-07T08:20:18;3.00;99.90
37300;DHT22;23184;51.902;12.836;2022-12-07T08:22:43;3.00;99.90
37300;DHT22;23184;51.902;12.836;2022-12-07T08:25:09;3.00;99.90
37300;DHT22;23184;51.902;12.836;2022-12-07T08:27:34;3.00;99.90
37300;DHT22;23184;51.902;12.836;2022-12-07T08:30:00;3.10;99.90
37300;DHT22;23184;51.902;12.836;2022-12-07T08:32:25;3.10;99.90
37300;DHT22;23184;51.902;12.836;2022-12-07T08:34:52;3.20;99.90
37300;DHT22;23184;51.902;12.836;2022-12-07T08:37:17;3.20;99.90
37300;DHT22;23184;51.902;12.836;2022-12-07T08:39:43;3.20;99.90
37300;DHT22;23184;51.902;12.836;2022-12-07T08:42:08;3.30;99.90
37300;DHT22;23184;51.902;12.836;2022-12-07T08:44:34;3.30;99.90
37300;DHT22;23184;51.902;12.836;2022-12-07T08:47:03;3.30;99.90
37300;DHT22;23184;51.902;12.836;2022-12-07T08:49:39;3.40;99.90
37300;DHT22;23184;51.902;12.836;2022-12-07T08:52:06;3.40;99.90
37300;DHT22;23184;51.902;12.836;2022-12-07T08:54:34;3.50;99.90
37300;DHT22;23184;51.902;12.836;2022-12-07T08:57:00;3.50;99.90
37300;DHT22;23184;51.902;12.836;2022-12-07T08:59:26;3.50;99.90
37300;DHT22;23184;51.902;12.836;2022-12-07T09:01:53;3.60;99.90
37300;DHT22;23184;51.902;12.836;2022-12-07T09:04:18;3.50;99.90
37300;DHT22;23184;51.902;12.836;2022-12-07T09:06:44;3.50;99.90
37300;DHT22;23184;51.902;12.836;2022-12-07T09:09:10;3.50;99.90
37300;DHT22;23184;51.902;12.836;2022-12-07T09:11:36;3.50;99.90
37300;DHT22;23184;51.902;12.836;2022-12-07T09:14:02;3.60;99.90
37300;DHT22;23184;51.902;12.836;2022-12-07T09:16:28;3.60;99.90
37300;DHT22;23184;51.902;12.836;2022-12-07T09:18:54;3.60;99.90
37300;DHT22;23184;51.902;12.836;2022-12-07T09:21:19;3.60;99.90
37300;DHT22;23184;51.902;12.836;2022-12-07T09:23:45;3.60;99.90
37300;DHT22;23184;51.902;12.836;2022-12-07T09:26:10;3.70;99.90
37300;DHT22;23184;51.902;12.836;2022-12-07T09:28:36;3.70;99.90
37300;DHT22;23184;51.902;12.836;2022-12-07T09:31:03;3.70;99.90
37300;DHT22;23184;51.902;12.836;2022-12-07T09:33:29;3.70;99.90
37300;DHT22;23184;51.902;12.836;2022-12-07T09:35:54;3.70;99.90
37300;DHT22;23184;51.902;12.836;2022-12-07T09:38:20;3.70;99.90
37300;DHT22;23184;51.902;12.836;2022-12-07T09:40:46;3.80;99.90
37300;DHT22;23184;51.902;12.836;2022-12-07T09:43:19;3.80;99.90
37300;DHT22;23184;51.902;12.836;2022-12-07T09:45:46;3.80;99.90
37300;DHT22;23184;51.902;12.836;2022-12-07T09:48:18;3.80;99.90
37300;DHT22;23184;51.902;12.836;2022-12-07T09:50:46;3.80;99.90
37300;DHT22;23184;51.902;12.836;2022-12-07T09:53:24;3.90;99.90
37300;DHT22;23184;51.902;12.836;2022-12-07T09:55:50;4.00;99.90
37300;DHT22;23184;51.902;12.836;2022-12-07T09:58:28;4.00;99.90
37300;DHT22;23184;51.902;12.836;2022-12-07T10:01:01;4.00;99.90
37300;DHT22;23184;51.902;12.836;2022-12-07T10:03:31;4.00;99.90
37300;DHT22;23184;51.902;12.836;2022-12-07T10:05:57;4.00;99.90
37300;DHT22;23184;51.902;12.836;2022-12-07T10:08:24;4.00;99.90
37300;DHT22;23184;51.902;12.836;2022-12-07T10:10:52;4.10;99.90
37300;DHT22;23184;51.902;12.836;2022-12-07T10:13:21;4.10;99.90
37300;DHT22;23184;51.902;12.836;2022-12-07T10:15:56;4.10;99.90
37300;DHT22;23184;51.902;12.836;2022-12-07T10:18:41;4.20;99.90
37300;DHT22;23184;51.902;12.836;2022-12-07T10:21:17;4.20;99.90
37300;DHT22;23184;51.902;12.836;2022-12-07T10:31:39;4.30;99.90
37300;DHT22;23184;51.902;12.836;2022-12-07T10:36:47;4.30;99.90
37300;DHT22;23184;51.902;12.836;2022-12-07T10:39:21;4.20;99.90
37300;DHT22;23184;51.902;12.836;2022-12-07T10:42:03;4.30;99.90
37300;DHT22;23184;51.902;12.836;2022-12-07T10:44:31;4.30;99.90
37300;DHT22;23184;51.902;12.836;2022-12-07T11:01:34;4.50;99.90
37300;DHT22;23184;51.902;12.836;2022-12-07T11:07:14;4.40;99.90
37300;DHT22;23184;51.902;12.836;2022-12-07T11:18:24;4.40;99.90
37300;DHT22;23184;51.902;12.836;2022-12-07T11:31:58;4.30;99.90
37300;DHT22;23184;51.902;12.836;2022-12-07T11:37:06;4.30;99.90
37300;DHT22;23184;51.902;12.836;2022-12-07T11:39:46;4.30;99.90
37300;DHT22;23184;51.902;12.836;2022-12-07T11:42:23;4.40;99.90
37300;DHT22;23184;51.902;12.836;2022-12-07T11:45:04;4.30;99.90
37300;DHT22;23184;51.902;12.836;2022-12-07T11:48:03;4.50;99.90
37300;DHT22;23184;51.902;12.836;2022-12-07T11:50:36;4.50;99.90
37300;DHT22;23184;51.902;12.836;2022-12-07T12:04:22;4.60;99.90
37300;DHT22;23184;51.902;12.836;2022-12-07T12:06:49;4.60;99.90
37300;DHT22;23184;51.902;12.836;2022-12-07T12:09:24;4.60;99.90
37300;DHT22;23184;51.902;12.836;2022-12-07T12:14:55;4.70;99.90
37300;DHT22;23184;51.902;12.836;2022-12-07T12:20:46;4.50;99.90
37300;DHT22;23184;51.902;12.836;2022-12-07T12:23:24;4.40;99.90
37300;DHT22;23184;51.902;12.836;2022-12-07T12:25:58;4.50;99.90
37300;DHT22;23184;51.902;12.836;2022-12-07T12:28:30;4.50;99.90
37300;DHT22;23184;51.902;12.836;2022-12-07T12:31:16;4.50;99.90
37300;DHT22;23184;51.902;12.836;2022-12-07T12:33:52;4.50;99.90
37300;DHT22;23184;51.902;12.836;2022-12-07T12:51:52;4.40;99.90
37300;DHT22;23184;51.902;12.836;2022-12-07T12:57:19;4.40;99.90
37300;DHT22;23184;51.902;12.836;2022-12-07T13:02:28;4.40;99.90
37300;DHT22;23184;51.902;12.836;2022-12-07T13:05:00;4.40;99.90
37300;DHT22;23184;51.902;12.836;2022-12-07T13:29:30;4.40;99.90
37300;DHT22;23184;51.902;12.836;2022-12-07T13:31:40;4.40;99.90
37300;DHT22;23184;51.902;12.836;2022-12-07T13:36:54;4.30;99.90
37300;DHT22;23184;51.902;12.836;2022-12-07T13:39:25;4.30;99.90
37300;DHT22;23184;51.902;12.836;2022-12-07T13:41:53;4.30;99.90
37300;DHT22;23184;51.902;12.836;2022-12-07T13:44:20;4.20;99.90
37300;DHT22;23184;51.902;12.836;2022-12-07T13:49:31;4.20;99.90
37300;DHT22;23184;51.902;12.836;2022-12-07T13:52:17;4.20;99.90
37300;DHT22;23184;51.902;12.836;2022-12-07T13:54:47;4.10;99.90
37300;DHT22;23184;51.902;12.836;2022-12-07T13:57:14;4.10;99.90
37300;DHT22;23184;51.902;12.836;2022-12-07T13:59:40;4.10;99.90
37300;DHT22;23184;51.902;12.836;2022-12-07T14:02:20;4.10;99.90
37300;DHT22;23184;51.902;12.836;2022-12-07T14:04:48;4.10;99.90
37300;DHT22;23184;51.902;12.836;2022-12-07T14:07:33;4.10;99.90
37300;DHT22;23184;51.902;12.836;2022-12-07T14:10:02;4.10;99.90
37300;DHT22;23184;51.902;12.836;2022-12-07T14:12:29;4.10;99.90
37300;DHT22;23184;51.902;12.836;2022-12-07T14:14:56;4.00;99.90
37300;DHT22;23184;51.902;12.836;2022-12-07T14:17:24;4.00;99.90
37300;DHT22;23184;51.902;12.836;2022-12-07T14:19:58;4.00;99.90
37300;DHT22;23184;51.902;12.836;2022-12-07T14:22:34;4.00;99.90
37300;DHT22;23184;51.902;12.836;2022-12-07T14:25:16;4.00;99.90
37300;DHT22;23184;51.902;12.836;2022-12-07T14:30:16;3.90;99.90
37300;DHT22;23184;51.902;12.836;2022-12-07T14:32:41;3.90;99.90
37300;DHT22;23184;51.902;12.836;2022-12-07T14:35:11;3.90;99.90
37300;DHT22;23184;51.902;12.836;2022-12-07T14:37:38;3.90;99.90
37300;DHT22;23184;51.902;12.836;2022-12-07T14:40:05;3.90;99.90
37300;DHT22;23184;51.902;12.836;2022-12-07T14:42:32;3.80;99.90
37300;DHT22;23184;51.902;12.836;2022-12-07T14:44:58;3.80;99.90
37300;DHT22;23184;51.902;12.836;2022-12-07T14:47:25;3.80;99.90
37300;DHT22;23184;51.902;12.836;2022-12-07T14:49:51;3.80;99.90
37300;DHT22;23184;51.902;12.836;2022-12-07T14:52:28;3.70;99.90
37300;DHT22;23184;51.902;12.836;2022-12-07T14:54:55;3.70;99.90
37300;DHT22;23184;51.902;12.836;2022-12-07T14:57:21;3.70;99.90
37300;DHT22;23184;51.902;12.836;2022-12-07T14:59:46;3.70;99.90
37300;DHT22;23184;51.902;12.836;2022-12-07T15:02:13;3.60;99.90
37300;DHT22;23184;51.902;12.836;2022-12-07T15:04:39;3.60;99.90
37300;DHT22;23184;51.902;12.836;2022-12-07T15:07:10;3.50;99.90
37300;DHT22;23184;51.902;12.836;2022-12-07T15:09:38;3.50;99.90
37300;DHT22;23184;51.902;12.836;2022-12-07T15:12:03;3.50;99.90
37300;DHT22;23184;51.902;12.836;2022-12-07T15:14:29;3.40;99.90
37300;DHT22;23184;51.902;12.836;2022-12-07T15:16:55;3.40;99.90
37300;DHT22;23184;51.902;12.836;2022-12-07T15:19:22;3.40;99.90
37300;DHT22;23184;51.902;12.836;2022-12-07T15:21:51;3.30;99.90
37300;DHT22;23184;51.902;12.836;2022-12-07T15:24:16;3.30;99.90
37300;DHT22;23184;51.902;12.836;2022-12-07T15:26:42;3.20;99.90
37300;DHT22;23184;51.902;12.836;2022-12-07T15:29:08;3.20;99.90
37300;DHT22;23184;51.902;12.836;2022-12-07T15:31:34;3.20;99.90
37300;DHT22;23184;51.902;12.836;2022-12-07T15:34:00;3.20;99.90
37300;DHT22;23184;51.902;12.836;2022-12-07T15:36:28;3.20;99.90
37300;DHT22;23184;51.902;12.836;2022-12-07T15:38:56;3.20;99.90
37300;DHT22;23184;51.902;12.836;2022-12-07T15:41:21;3.20;99.90
37300;DHT22;23184;51.902;12.836;2022-12-07T15:43:47;3.20;99.90
37300;DHT22;23184;51.902;12.836;2022-12-07T15:46:32;3.20;99.90
37300;DHT22;23184;51.902;12.836;2022-12-07T15:48:59;3.10;99.90
37300;DHT22;23184;51.902;12.836;2022-12-07T15:51:25;3.10;99.90
37300;DHT22;23184;51.902;12.836;2022-12-07T15:53:51;3.10;99.90
37300;DHT22;23184;51.902;12.836;2022-12-07T15:56:16;3.10;99.90
37300;DHT22;23184;51.902;12.836;2022-12-07T15:58:42;3.10;99.90
37300;DHT22;23184;51.902;12.836;2022-12-07T16:01:15;3.20;99.90
37300;DHT22;23184;51.902;12.836;2022-12-07T16:03:42;3.10;99.90
37300;DHT22;23184;51.902;12.836;2022-12-07T16:06:08;3.10;99.90
37300;DHT22;23184;51.902;12.836;2022-12-07T16:08:34;3.10;99.90
37300;DHT22;23184;51.902;12.836;2022-12-07T16:10:59;3.10;99.90
37300;DHT22;23184;51.902;12.836;2022-12-07T16:13:25;3.00;99.90
37300;DHT22;23184;51.902;12.836;2022-12-07T16:15:50;3.00;99.90
37300;DHT22;23184;51.902;12.836;2022-12-07T16:18:16;3.00;99.90
37300;DHT22;23184;51.902;12.836;2022-12-07T16:20:41;3.00;99.90
37300;DHT22;23184;51.902;12.836;2022-12-07T16:23:08;3.00;99.90
37300;DHT22;23184;51.902;12.836;2022-12-07T16:25:34;3.00;99.90
37300;DHT22;23184;51.902;12.836;2022-12-07T16:27:59;3.00;99.90
37300;DHT22;23184;51.902;12.836;2022-12-07T16:30:25;2.90;99.90
37300;DHT22;23184;51.902;12.836;2022-12-07T16:32:51;3.00;99.90
37300;DHT22;23184;51.902;12.836;2022-12-07T16:35:16;3.00;99.90
37300;DHT22;23184;51.902;12.836;2022-12-07T16:37:42;3.00;99.90
37300;DHT22;23184;51.902;12.836;2022-12-07T16:40:08;3.00;99.90
37300;DHT22;23184;51.902;12.836;2022-12-07T16:42:35;3.00;99.90
37300;DHT22;23184;51.902;12.836;2022-12-07T16:45:02;3.00;99.90
37300;DHT22;23184;51.902;12.836;2022-12-07T16:47:27;3.10;99.90
37300;DHT22;23184;51.902;12.836;2022-12-07T16:49:53;3.10;99.90
37300;DHT22;23184;51.902;12.836;2022-12-07T16:52:22;3.10;99.90
37300;DHT22;23184;51.902;12.836;2022-12-07T16:54:48;3.10;99.90
37300;DHT22;23184;51.902;12.836;2022-12-07T16:57:14;3.10;99.90
37300;DHT22;23184;51.902;12.836;2022-12-07T16:59:40;3.10;99.90
37300;DHT22;23184;51.902;12.836;2022-12-07T17:02:05;3.10;99.90
37300;DHT22;23184;51.902;12.836;2022-12-07T17:04:33;3.20;99.90
37300;DHT22;23184;51.902;12.836;2022-12-07T17:06:58;3.20;99.90
37300;DHT22;23184;51.902;12.836;2022-12-07T17:09:24;3.20;99.90
37300;DHT22;23184;51.902;12.836;2022-12-07T17:11:50;3.20;99.90
37300;DHT22;23184;51.902;12.836;2022-12-07T17:14:16;3.20;99.90
37300;DHT22;23184;51.902;12.836;2022-12-07T17:17:00;3.10;99.90
37300;DHT22;23184;51.902;12.836;2022-12-07T17:19:25;3.10;99.90
37300;DHT22;23184;51.902;12.836;2022-12-07T17:21:51;3.10;99.90
37300;DHT22;23184;51.902;12.836;2022-12-07T17:24:17;3.20;99.90
37300;DHT22;23184;51.902;12.836;2022-12-07T17:26:44;3.10;99.90
37300;DHT22;23184;51.902;12.836;2022-12-07T17:29:12;3.10;99.90
37300;DHT22;23184;51.902;12.836;2022-12-07T17:31:38;3.10;99.90
37300;DHT22;23184;51.902;12.836;2022-12-07T17:34:08;3.10;99.90
37300;DHT22;23184;51.902;12.836;2022-12-07T17:36:34;3.10;99.90
37300;DHT22;23184;51.902;12.836;2022-12-07T17:39:00;3.10;99.90
37300;DHT22;23184;51.902;12.836;2022-12-07T17:41:27;3.00;99.90
37300;DHT22;23184;51.902;12.836;2022-12-07T17:44:15;3.00;99.90
37300;DHT22;23184;51.902;12.836;2022-12-07T17:46:41;3.00;99.90
37300;DHT22;23184;51.902;12.836;2022-12-07T17:49:07;3.00;99.90
37300;DHT22;23184;51.902;12.836;2022-12-07T17:51:33;2.90;99.90
37300;DHT22;23184;51.902;12.836;2022-12-07T17:54:18;2.90;99.90